sensor_id;sensor_type;location;lat;lon;timestamp;pressure;altitude;pressure_sealevel;temperature;humidity
66486;BME280;53303;47.476;8.084;2024-02-26T00:02:18;93406.31;;;19.65;39.40
66486;BME280;53303;47.476;8.084;2024-02-26T00:04:43;93408.53;;;19.67;39.30
66486;BME280;53303;47.476;8.084;2024-02-26T00:07:09;93407.41;;;19.70;39.46
66486;BME280;53303;47.476;8.084;2024-02-26T00:09:34;93405.75;;;19.67;39.35
66486;BME280;53303;47.476;8.084;2024-02-26T00:12:04;93404.06;;;19.71;39.35
66486;BME280;53303;47.476;8.084;2024-02-26T00:14:30;93405.75;;;19.67;39.60
66486;BME280;53303;47.476;8.084;2024-02-26T00:16:56;93388.78;;;19.55;39.34
66486;BME280;53303;47.476;8.084;2024-02-26T00:19:21;93407.97;;;19.68;39.28
66486;BME280;53303;47.476;8.084;2024-02-26T00:21:47;93403.53;;;19.65;39.27
66486;BME280;53303;47.476;8.084;2024-02-26T00:24:12;93408.88;;;19.71;39.39
66486;BME280;53303;47.476;8.084;2024-02-26T00:26:40;93392.81;;;19.69;39.42
66486;BME280;53303;47.476;8.084;2024-02-26T00:29:06;93391.19;;;19.66;39.43
66486;BME280;53303;47.476;8.084;2024-02-26T00:31:31;93371.06;;;19.58;39.40
66486;BME280;53303;47.476;8.084;2024-02-26T00:33:59;93396.16;;;19.68;39.39
66486;BME280;53303;47.476;8.084;2024-02-26T00:36:24;93407.97;;;19.68;39.73
66486;BME280;53303;47.476;8.084;2024-02-26T00:38:49;93407.22;;;19.68;39.52
66486;BME280;53303;47.476;8.084;2024-02-26T00:41:18;93393.75;;;19.64;39.58
66486;BME280;53303;47.476;8.084;2024-02-26T00:43:46;93384.72;;;19.64;39.57
66486;BME280;53303;47.476;8.084;2024-02-26T00:46:14;93389.88;;;19.67;39.61
66486;BME280;53303;47.476;8.084;2024-02-26T00:48:42;93388.06;;;19.70;39.57
66486;BME280;53303;47.476;8.084;2024-02-26T00:51:10;93382.31;;;19.68;39.47
66486;BME280;53303;47.476;8.084;2024-02-26T00:53:35;93391.19;;;19.66;39.84
66486;BME280;53303;47.476;8.084;2024-02-26T00:56:01;93388.41;;;19.66;39.72
66486;BME280;53303;47.476;8.084;2024-02-26T00:58:27;93388.59;;;19.68;39.78
66486;BME280;53303;47.476;8.084;2024-02-26T01:00:53;93393.59;;;19.70;39.58
66486;BME280;53303;47.476;8.084;2024-02-26T01:03:20;93381.03;;;19.69;39.60
66486;BME280;53303;47.476;8.084;2024-02-26T01:05:46;93370.50;;;19.67;39.68
66486;BME280;53303;47.476;8.084;2024-02-26T01:08:11;93375.50;;;19.69;39.67
66486;BME280;53303;47.476;8.084;2024-02-26T01:10:37;93365.91;;;19.70;39.67
66486;BME280;53303;47.476;8.084;2024-02-26T01:13:02;93352.63;;;19.68;39.72
66486;BME280;53303;47.476;8.084;2024-02-26T01:15:28;93354.09;;;19.69;39.81
66486;BME280;53303;47.476;8.084;2024-02-26T01:17:53;93352.44;;;19.66;39.67
66486;BME280;53303;47.476;8.084;2024-02-26T01:20:19;93365.91;;;19.70;39.83
66486;BME280;53303;47.476;8.084;2024-02-26T01:22:44;93354.84;;;19.70;39.61
66486;BME280;53303;47.476;8.084;2024-02-26T01:25:10;93374.22;;;19.70;39.83
66486;BME280;53303;47.476;8.084;2024-02-26T01:27:36;93382.53;;;19.70;39.72
66486;BME280;53303;47.476;8.084;2024-02-26T01:30:05;93384.53;;;19.69;39.60
66486;BME280;53303;47.476;8.084;2024-02-26T01:32:31;93371.44;;;19.70;39.86
66486;BME280;53303;47.476;8.084;2024-02-26T01:34:59;93364.81;;;19.65;39.65
66486;BME280;53303;47.476;8.084;2024-02-26T01:37:25;93366.66;;;19.63;39.92
66486;BME280;53303;47.476;8.084;2024-02-26T01:39:50;93365.34;;;19.64;39.83
66486;BME280;53303;47.476;8.084;2024-02-26T01:42:16;93346.34;;;19.68;40.06
66486;BME280;53303;47.476;8.084;2024-02-26T01:44:41;93345.25;;;19.63;39.99
66486;BME280;53303;47.476;8.084;2024-02-26T01:47:10;93354.66;;;19.68;40.19
66486;BME280;53303;47.476;8.084;2024-02-26T01:49:36;93367.94;;;19.69;39.83
66486;BME280;53303;47.476;8.084;2024-02-26T01:52:03;93360.38;;;19.62;39.99
66486;BME280;53303;47.476;8.084;2024-02-26T01:54:30;93376.22;;;19.69;39.85
66486;BME280;53303;47.476;8.084;2024-02-26T01:56:56;93366.47;;;19.68;40.00
66486;BME280;53303;47.476;8.084;2024-02-26T01:59:23;93373.84;;;19.66;39.97
66486;BME280;53303;47.476;8.084;2024-02-26T02:01:52;93372.56;;;19.67;40.00
66486;BME280;53303;47.476;8.084;2024-02-26T02:04:20;93366.09;;;19.64;40.22
66486;BME280;53303;47.476;8.084;2024-02-26T02:06:46;93367.75;;;19.67;39.95
66486;BME280;53303;47.476;8.084;2024-02-26T02:09:11;93354.09;;;19.62;40.09
66486;BME280;53303;47.476;8.084;2024-02-26T02:11:37;93360.38;;;19.62;40.20
66486;BME280;53303;47.476;8.084;2024-02-26T02:14:03;93362.22;;;19.67;40.04
66486;BME280;53303;47.476;8.084;2024-02-26T02:16:28;93364.63;;;19.63;40.14
66486;BME280;53303;47.476;8.084;2024-02-26T02:18:54;93360.75;;;19.66;40.05
66486;BME280;53303;47.476;8.084;2024-02-26T02:21:19;93343.59;;;19.60;40.29
66486;BME280;53303;47.476;8.084;2024-02-26T02:23:45;93335.84;;;19.66;40.27
66486;BME280;53303;47.476;8.084;2024-02-26T02:26:12;93316.88;;;19.63;40.09
66486;BME280;53303;47.476;8.084;2024-02-26T02:28:41;93329.00;;;19.67;40.31
66486;BME280;53303;47.476;8.084;2024-02-26T02:31:07;93331.59;;;19.65;40.37
66486;BME280;53303;47.476;8.084;2024-02-26T02:33:34;93315.38;;;19.62;40.19
66486;BME280;53303;47.476;8.084;2024-02-26T02:35:59;93299.88;;;19.58;40.41
66486;BME280;53303;47.476;8.084;2024-02-26T02:38:24;93303.75;;;19.63;40.18
66486;BME280;53303;47.476;8.084;2024-02-26T02:40:51;93297.13;;;19.66;40.29
66486;BME280;53303;47.476;8.084;2024-02-26T02:43:17;93296.91;;;19.64;40.25
66486;BME280;53303;47.476;8.084;2024-02-26T02:45:42;93307.25;;;19.64;40.51
66486;BME280;53303;47.476;8.084;2024-02-26T02:48:08;93309.47;;;19.65;40.38
66486;BME280;53303;47.476;8.084;2024-02-26T02:50:33;93325.34;;;19.65;40.32
66486;BME280;53303;47.476;8.084;2024-02-26T02:52:58;93336.41;;;19.65;40.52
66486;BME280;53303;47.476;8.084;2024-02-26T02:55:27;93338.41;;;19.64;40.38
66486;BME280;53303;47.476;8.084;2024-02-26T02:57:54;93339.19;;;19.65;40.37
66486;BME280;53303;47.476;8.084;2024-02-26T03:00:20;93350.97;;;19.65;40.44
66486;BME280;53303;47.476;8.084;2024-02-26T03:02:48;93343.59;;;19.60;40.56
66486;BME280;53303;47.476;8.084;2024-02-26T03:05:14;93357.78;;;19.64;40.51
66486;BME280;53303;47.476;8.084;2024-02-26T03:07:42;93364.06;;;19.65;40.42
66486;BME280;53303;47.476;8.084;2024-02-26T03:10:10;93354.66;;;19.60;40.37
66486;BME280;53303;47.476;8.084;2024-02-26T03:12:38;93352.25;;;19.64;40.56
66486;BME280;53303;47.476;8.084;2024-02-26T03:15:04;93345.25;;;19.63;40.55
66486;BME280;53303;47.476;8.084;2024-02-26T03:17:32;93328.09;;;19.57;40.61
66486;BME280;53303;47.476;8.084;2024-02-26T03:19:57;93328.66;;;19.63;40.40
66486;BME280;53303;47.476;8.084;2024-02-26T03:22:23;93332.69;;;19.62;40.29
66486;BME280;53303;47.476;8.084;2024-02-26T03:24:48;93335.13;;;19.58;40.57
66486;BME280;53303;47.476;8.084;2024-02-26T03:27:14;93349.31;;;19.62;40.58
66486;BME280;53303;47.476;8.084;2024-02-26T03:29:39;93348.41;;;19.59;40.65
66486;BME280;53303;47.476;8.084;2024-02-26T03:32:05;93360.19;;;19.60;40.50
66486;BME280;53303;47.476;8.084;2024-02-26T03:34:32;93361.84;;;19.63;40.50
66486;BME280;53303;47.476;8.084;2024-02-26T03:36:59;93363.91;;;19.63;40.70
66486;BME280;53303;47.476;8.084;2024-02-26T03:39:27;93366.44;;;19.60;40.71
66486;BME280;53303;47.476;8.084;2024-02-26T03:41:55;93374.94;;;19.55;40.88
66486;BME280;53303;47.476;8.084;2024-02-26T03:44:20;93386.03;;;19.63;40.64
66486;BME280;53303;47.476;8.084;2024-02-26T03:46:46;93383.25;;;19.55;40.41
66486;BME280;53303;47.476;8.084;2024-02-26T03:49:12;93377.34;;;19.51;40.74
66486;BME280;53303;47.476;8.084;2024-02-26T03:51:38;93396.34;;;19.62;40.79
66486;BME280;53303;47.476;8.084;2024-02-26T03:54:03;93396.88;;;19.60;40.68
66486;BME280;53303;47.476;8.084;2024-02-26T03:56:30;93386.56;;;19.61;40.62
66486;BME280;53303;47.476;8.084;2024-02-26T03:58:55;93391.72;;;19.57;40.67
66486;BME280;53303;47.476;8.084;2024-02-26T04:01:20;93384.91;;;19.50;40.82
66486;BME280;53303;47.476;8.084;2024-02-26T04:03:46;93401.69;;;19.60;40.73
66486;BME280;53303;47.476;8.084;2024-02-26T04:06:11;93394.69;;;19.59;40.74
66486;BME280;53303;47.476;8.084;2024-02-26T04:08:41;93384.91;;;19.58;40.74
66486;BME280;53303;47.476;8.084;2024-02-26T04:11:06;93384.34;;;19.59;40.85
66486;BME280;53303;47.476;8.084;2024-02-26T04:13:36;93394.31;;;19.55;40.67
66486;BME280;53303;47.476;8.084;2024-02-26T04:16:04;93377.88;;;19.57;40.84
66486;BME280;53303;47.476;8.084;2024-02-26T04:18:31;93388.59;;;19.60;40.92
66486;BME280;53303;47.476;8.084;2024-02-26T04:20:56;93384.34;;;19.59;40.94
66486;BME280;53303;47.476;8.084;2024-02-26T04:23:24;93382.88;;;19.58;40.91
66486;BME280;53303;47.476;8.084;2024-02-26T04:25:50;93384.34;;;19.59;40.71
66486;BME280;53303;47.476;8.084;2024-02-26T04:28:15;93382.88;;;19.58;40.91
66486;BME280;53303;47.476;8.084;2024-02-26T04:30:41;93375.13;;;19.57;40.81
66486;BME280;53303;47.476;8.084;2024-02-26T04:33:07;93380.47;;;19.55;40.80
66486;BME280;53303;47.476;8.084;2024-02-26T04:35:32;93367.94;;;19.54;41.07
66486;BME280;53303;47.476;8.084;2024-02-26T04:37:58;93357.44;;;19.52;40.98
66486;BME280;53303;47.476;8.084;2024-02-26T04:40:25;93364.81;;;19.57;40.79
66486;BME280;53303;47.476;8.084;2024-02-26T04:42:53;93364.81;;;19.57;40.84
66486;BME280;53303;47.476;8.084;2024-02-26T04:45:21;93364.25;;;19.59;41.02
66486;BME280;53303;47.476;8.084;2024-02-26T04:47:48;93375.13;;;19.57;40.99
66486;BME280;53303;47.476;8.084;2024-02-26T04:50:17;93376.59;;;19.58;41.08
66486;BME280;53303;47.476;8.084;2024-02-26T04:52:42;93377.72;;;19.55;40.95
66486;BME280;53303;47.476;8.084;2024-02-26T04:55:08;93374.75;;;19.53;40.90
66486;BME280;53303;47.476;8.084;2024-02-26T04:57:33;93372.19;;;19.55;40.93
66486;BME280;53303;47.476;8.084;2024-02-26T04:59:58;93373.47;;;19.54;41.01
66486;BME280;53303;47.476;8.084;2024-02-26T05:02:24;93375.88;;;19.57;41.12
66486;BME280;53303;47.476;8.084;2024-02-26T05:04:50;93383.25;;;19.55;40.98
66486;BME280;53303;47.476;8.084;2024-02-26T05:07:17;93387.69;;;19.58;40.83
66486;BME280;53303;47.476;8.084;2024-02-26T05:09:43;93389.72;;;19.57;40.87
66486;BME280;53303;47.476;8.084;2024-02-26T05:12:11;93377.16;;;19.56;41.03
66486;BME280;53303;47.476;8.084;2024-02-26T05:14:39;93368.69;;;19.54;40.83
66486;BME280;53303;47.476;8.084;2024-02-26T05:17:04;93351.50;;;19.48;40.54
66486;BME280;53303;47.476;8.084;2024-02-26T05:19:31;93367.59;;;19.57;40.46
66486;BME280;53303;47.476;8.084;2024-02-26T05:21:56;93362.78;;;19.58;40.36
66486;BME280;53303;47.476;8.084;2024-02-26T05:24:22;93356.34;;;19.55;40.04
66486;BME280;53303;47.476;8.084;2024-02-26T05:26:47;93353.72;;;19.50;40.24
66486;BME280;53303;47.476;8.084;2024-02-26T05:29:13;93348.59;;;19.54;40.03
66486;BME280;53303;47.476;8.084;2024-02-26T05:31:38;93354.28;;;19.56;40.15
66486;BME280;53303;47.476;8.084;2024-02-26T05:34:06;93355.94;;;19.51;40.18
66486;BME280;53303;47.476;8.084;2024-02-26T05:36:31;93358.53;;;19.57;40.19
66486;BME280;53303;47.476;8.084;2024-02-26T05:38:59;93365.53;;;19.58;40.25
66486;BME280;53303;47.476;8.084;2024-02-26T05:41:27;93372.34;;;19.57;40.24
66486;BME280;53303;47.476;8.084;2024-02-26T05:43:53;93372.34;;;19.57;40.25
66486;BME280;53303;47.476;8.084;2024-02-26T05:46:19;93382.13;;;19.58;40.21
66486;BME280;53303;47.476;8.084;2024-02-26T05:48:47;93384.19;;;19.57;40.25
66486;BME280;53303;47.476;8.084;2024-02-26T05:51:13;93392.47;;;19.57;40.29
66486;BME280;53303;47.476;8.084;2024-02-26T05:53:38;93391.00;;;19.56;40.30
66486;BME280;53303;47.476;8.084;2024-02-26T05:56:04;93398.56;;;19.56;40.18
66486;BME280;53303;47.476;8.084;2024-02-26T05:58:31;93390.63;;;19.52;40.26
66486;BME280;53303;47.476;8.084;2024-02-26T06:00:59;93385.09;;;19.52;40.21
66486;BME280;53303;47.476;8.084;2024-02-26T06:03:25;93390.63;;;19.52;40.15
66486;BME280;53303;47.476;8.084;2024-02-26T06:05:51;93386.94;;;19.57;40.36
66486;BME280;53303;47.476;8.084;2024-02-26T06:08:16;93385.28;;;19.54;40.57
66486;BME280;53303;47.476;8.084;2024-02-26T06:10:42;93389.31;;;19.53;40.29
66486;BME280;53303;47.476;8.084;2024-02-26T06:13:07;93394.84;;;19.53;40.43
66486;BME280;53303;47.476;8.084;2024-02-26T06:15:33;93391.53;;;19.55;40.45
66486;BME280;53303;47.476;8.084;2024-02-26T06:17:58;93403.91;;;19.54;40.53
66486;BME280;53303;47.476;8.084;2024-02-26T06:20:24;93410.34;;;19.56;40.30
66486;BME280;53303;47.476;8.084;2024-02-26T06:22:54;93402.06;;;19.49;40.47
66486;BME280;53303;47.476;8.084;2024-02-26T06:25:19;93414.97;;;19.54;40.56
66486;BME280;53303;47.476;8.084;2024-02-26T06:27:45;93417.56;;;19.52;40.54
66486;BME280;53303;47.476;8.084;2024-02-26T06:30:12;93429.16;;;19.58;40.69
66486;BME280;53303;47.476;8.084;2024-02-26T06:32:40;93427.31;;;19.60;40.58
66486;BME280;53303;47.476;8.084;2024-02-26T06:35:06;93423.09;;;19.59;40.26
66486;BME280;53303;47.476;8.084;2024-02-26T06:37:34;93417.56;;;19.59;40.67
66486;BME280;53303;47.476;8.084;2024-02-26T06:40:03;93413.31;;;19.58;40.57
66486;BME280;53303;47.476;8.084;2024-02-26T06:42:29;93410.00;;;19.60;40.67
66486;BME280;53303;47.476;8.084;2024-02-26T06:44:57;93414.78;;;19.59;40.74
66486;BME280;53303;47.476;8.084;2024-02-26T06:49:52;93424.19;;;19.56;40.86
66486;BME280;53303;47.476;8.084;2024-02-26T06:52:24;93415.16;;;19.56;40.68
66486;BME280;53303;47.476;8.084;2024-02-26T06:54:50;93406.84;;;19.56;40.77
66486;BME280;53303;47.476;8.084;2024-02-26T06:57:18;93411.66;;;19.55;40.71
66486;BME280;53303;47.476;8.084;2024-02-26T06:59:44;93421.78;;;19.60;40.82
66486;BME280;53303;47.476;8.084;2024-02-26T07:02:12;93433.59;;;19.61;40.88
66486;BME280;53303;47.476;8.084;2024-02-26T07:04:37;93428.06;;;19.53;40.73
66486;BME280;53303;47.476;8.084;2024-02-26T07:07:03;93442.81;;;19.56;40.88
66486;BME280;53303;47.476;8.084;2024-02-26T07:09:31;93440.78;;;19.56;40.77
66486;BME280;53303;47.476;8.084;2024-02-26T07:11:56;93440.97;;;19.58;41.11
66486;BME280;53303;47.476;8.084;2024-02-26T07:14:24;93441.16;;;19.60;40.93
66486;BME280;53303;47.476;8.084;2024-02-26T07:16:52;93437.84;;;19.62;40.80
66486;BME280;53303;47.476;8.084;2024-02-26T07:19:18;93435.06;;;19.62;41.00
66486;BME280;53303;47.476;8.084;2024-02-26T07:21:45;93425.50;;;19.55;40.83
66486;BME280;53303;47.476;8.084;2024-02-26T07:24:11;93430.44;;;19.57;41.10
66486;BME280;53303;47.476;8.084;2024-02-26T07:26:36;93436.38;;;19.61;41.10
66486;BME280;53303;47.476;8.084;2024-02-26T07:29:01;93437.84;;;19.62;41.17
66486;BME280;53303;47.476;8.084;2024-02-26T07:31:27;93435.63;;;19.60;41.08
66486;BME280;53303;47.476;8.084;2024-02-26T07:33:55;93433.78;;;19.63;41.16
66486;BME280;53303;47.476;8.084;2024-02-26T07:36:20;93437.09;;;19.62;41.18
66486;BME280;53303;47.476;8.084;2024-02-26T07:38:45;93431.94;;;19.58;40.98
66486;BME280;53303;47.476;8.084;2024-02-26T07:41:11;93435.06;;;19.62;40.98
66486;BME280;53303;47.476;8.084;2024-02-26T07:43:37;93433.06;;;19.63;41.33
66486;BME280;53303;47.476;8.084;2024-02-26T07:46:02;93421.06;;;19.60;41.21
66486;BME280;53303;47.476;8.084;2024-02-26T07:48:30;93428.97;;;19.64;41.05
66486;BME280;53303;47.476;8.084;2024-02-26T07:50:58;93425.69;;;19.57;41.26
66486;BME280;53303;47.476;8.084;2024-02-26T07:53:25;93445.59;;;19.64;41.28
66486;BME280;53303;47.476;8.084;2024-02-26T07:55:51;93448.91;;;19.62;41.24
66486;BME280;53303;47.476;8.084;2024-02-26T07:58:16;93453.16;;;19.63;41.31
66486;BME280;53303;47.476;8.084;2024-02-26T08:00:42;93444.84;;;19.63;41.36
66486;BME280;53303;47.476;8.084;2024-02-26T08:03:07;93452.41;;;19.63;41.31
66486;BME280;53303;47.476;8.084;2024-02-26T08:05:35;93451.84;;;19.64;41.24
66486;BME280;53303;47.476;8.084;2024-02-26T08:08:06;93457.00;;;19.60;41.43
66486;BME280;53303;47.476;8.084;2024-02-26T08:10:31;93470.66;;;19.66;41.20
66486;BME280;53303;47.476;8.084;2024-02-26T08:12:57;93467.91;;;19.66;41.18
66486;BME280;53303;47.476;8.084;2024-02-26T08:15:33;93466.25;;;19.63;41.28
66486;BME280;53303;47.476;8.084;2024-02-26T08:18:01;93463.66;;;19.65;41.15
66486;BME280;53303;47.476;8.084;2024-02-26T08:20:30;93456.09;;;19.65;41.21
66486;BME280;53303;47.476;8.084;2024-02-26T08:22:57;93447.03;;;19.57;41.15
66486;BME280;53303;47.476;8.084;2024-02-26T08:25:24;93452.78;;;19.67;41.50
66486;BME280;53303;47.476;8.084;2024-02-26T08:27:51;93431.75;;;19.56;41.35
66486;BME280;53303;47.476;8.084;2024-02-26T08:30:17;93441.00;;;19.66;41.28
66486;BME280;53303;47.476;8.084;2024-02-26T08:32:47;93441.53;;;19.65;41.31
66486;BME280;53303;47.476;8.084;2024-02-26T08:35:12;93436.56;;;19.63;41.36
66486;BME280;53303;47.476;8.084;2024-02-26T08:37:40;93437.66;;;19.68;41.41
66486;BME280;53303;47.476;8.084;2024-02-26T08:40:06;93437.66;;;19.68;41.30
66486;BME280;53303;47.476;8.084;2024-02-26T08:42:32;93444.66;;;19.69;41.34
66486;BME280;53303;47.476;8.084;2024-02-26T08:44:57;93447.44;;;19.69;41.51
66486;BME280;53303;47.476;8.084;2024-02-26T08:47:28;93440.41;;;19.68;41.71
66486;BME280;53303;47.476;8.084;2024-02-26T08:49:53;93442.09;;;19.71;41.48
66486;BME280;53303;47.476;8.084;2024-02-26T08:52:18;93459.78;;;19.68;41.50
66486;BME280;53303;47.476;8.084;2024-02-26T08:54:46;93464.59;;;19.67;41.52
66486;BME280;53303;47.476;8.084;2024-02-26T08:57:12;93473.06;;;19.69;41.39
66486;BME280;53303;47.476;8.084;2024-02-26T08:59:37;93471.59;;;19.68;41.22
66486;BME280;53303;47.476;8.084;2024-02-26T09:02:03;93470.31;;;19.69;41.44
66486;BME280;53303;47.476;8.084;2024-02-26T09:04:28;93459.06;;;19.67;41.28
66486;BME280;53303;47.476;8.084;2024-02-26T09:06:56;93457.59;;;19.66;41.36
66486;BME280;53303;47.476;8.084;2024-02-26T09:09:22;93454.81;;;19.66;41.43
66486;BME280;53303;47.476;8.084;2024-02-26T09:11:51;93450.19;;;19.61;41.36
66486;BME280;53303;47.476;8.084;2024-02-26T09:14:18;93459.41;;;19.71;41.48
66486;BME280;53303;47.476;8.084;2024-02-26T09:16:44;93474.75;;;19.72;41.50
66486;BME280;53303;47.476;8.084;2024-02-26T09:19:09;93469.38;;;19.67;41.53
66486;BME280;53303;47.476;8.084;2024-02-26T09:21:42;93492.63;;;19.71;41.27
66486;BME280;53303;47.476;8.084;2024-02-26T09:24:07;93481.38;;;19.69;41.48
66486;BME280;53303;47.476;8.084;2024-02-26T09:26:35;93480.63;;;19.69;41.46
66486;BME280;53303;47.476;8.084;2024-02-26T09:29:00;93484.56;;;19.73;41.52
66486;BME280;53303;47.476;8.084;2024-02-26T09:31:26;93480.09;;;19.70;41.31
66486;BME280;53303;47.476;8.084;2024-02-26T09:33:54;93478.78;;;19.71;41.57
66486;BME280;53303;47.476;8.084;2024-02-26T09:36:19;93469.94;;;19.65;41.51
66486;BME280;53303;47.476;8.084;2024-02-26T09:38:44;93481.91;;;19.68;41.67
66486;BME280;53303;47.476;8.084;2024-02-26T09:41:14;93481.78;;;19.73;41.70
66486;BME280;53303;47.476;8.084;2024-02-26T09:43:44;93478.06;;;19.71;41.26
66486;BME280;53303;47.476;8.084;2024-02-26T09:46:11;93476.19;;;19.66;41.55
66486;BME280;53303;47.476;8.084;2024-02-26T09:48:37;93483.25;;;19.74;41.58
66486;BME280;53303;47.476;8.084;2024-02-26T09:51:03;93497.81;;;19.75;41.46
66486;BME280;53303;47.476;8.084;2024-02-26T09:53:31;93488.78;;;19.74;41.46
66486;BME280;53303;47.476;8.084;2024-02-26T09:56:00;93486.75;;;19.75;41.38
66486;BME280;53303;47.476;8.084;2024-02-26T09:58:28;93489.72;;;19.77;41.43
66486;BME280;53303;47.476;8.084;2024-02-26T10:01:00;93500.59;;;19.75;41.43
66486;BME280;53303;47.476;8.084;2024-02-26T10:03:38;93501.34;;;19.75;41.37
66486;BME280;53303;47.476;8.084;2024-02-26T10:06:06;93494.09;;;19.72;41.50
66486;BME280;53303;47.476;8.084;2024-02-26T10:08:32;93494.50;;;19.76;41.55
66486;BME280;53303;47.476;8.084;2024-02-26T10:10:58;93502.06;;;19.76;41.69
66486;BME280;53303;47.476;8.084;2024-02-26T10:13:24;93506.88;;;19.75;41.43
66486;BME280;53303;47.476;8.084;2024-02-26T10:15:50;93517.41;;;19.77;41.67
66486;BME280;53303;47.476;8.084;2024-02-26T10:18:16;93519.41;;;19.76;41.55
66486;BME280;53303;47.476;8.084;2024-02-26T10:20:41;93533.44;;;19.78;41.48
66486;BME280;53303;47.476;8.084;2024-02-26T10:23:07;93532.16;;;19.80;41.60
66486;BME280;53303;47.476;8.084;2024-02-26T10:25:32;93533.44;;;19.78;41.62
66486;BME280;53303;47.476;8.084;2024-02-26T10:28:01;93539.53;;;19.77;41.49
66486;BME280;53303;47.476;8.084;2024-02-26T10:30:29;93542.31;;;19.77;41.51
66486;BME280;53303;47.476;8.084;2024-02-26T10:32:58;93553.00;;;19.81;41.49
66486;BME280;53303;47.476;8.084;2024-02-26T10:35:24;93551.88;;;19.76;41.43
66486;BME280;53303;47.476;8.084;2024-02-26T10:37:50;93560.19;;;19.76;41.62
66486;BME280;53303;47.476;8.084;2024-02-26T10:40:16;93548.56;;;19.77;41.51
66486;BME280;53303;47.476;8.084;2024-02-26T10:42:42;93551.16;;;19.75;41.58
66486;BME280;53303;47.476;8.084;2024-02-26T10:45:09;93556.88;;;19.77;41.69
66486;BME280;53303;47.476;8.084;2024-02-26T10:47:38;93559.28;;;19.81;41.55
66486;BME280;53303;47.476;8.084;2024-02-26T10:50:06;93553.94;;;19.83;41.28
66486;BME280;53303;47.476;8.084;2024-02-26T10:52:35;93548.94;;;19.82;41.49
66486;BME280;53303;47.476;8.084;2024-02-26T10:55:02;93550.44;;;19.83;41.59
66486;BME280;53303;47.476;8.084;2024-02-26T10:57:35;93544.88;;;19.83;41.47
66486;BME280;53303;47.476;8.084;2024-02-26T11:00:03;93538.41;;;19.80;41.36
66486;BME280;53303;47.476;8.084;2024-02-26T11:02:33;93543.41;;;19.82;41.74
66486;BME280;53303;47.476;8.084;2024-02-26T11:05:02;93519.75;;;19.73;41.40
66486;BME280;53303;47.476;8.084;2024-02-26T11:07:30;93529.19;;;19.85;41.62
66486;BME280;53303;47.476;8.084;2024-02-26T11:09:58;93526.06;;;19.81;41.41
66486;BME280;53303;47.476;8.084;2024-02-26T11:12:25;93531.06;;;19.83;41.64
66486;BME280;53303;47.476;8.084;2024-02-26T11:14:56;93531.59;;;19.81;41.61
66486;BME280;53303;47.476;8.084;2024-02-26T11:17:26;93534.91;;;19.80;41.53
66486;BME280;53303;47.476;8.084;2024-02-26T11:19:55;93539.34;;;19.83;41.65
66486;BME280;53303;47.476;8.084;2024-02-26T11:22:21;93539.72;;;19.79;41.72
66486;BME280;53303;47.476;8.084;2024-02-26T11:24:48;93548.56;;;19.85;41.92
66486;BME280;53303;47.476;8.084;2024-02-26T11:27:16;93557.06;;;19.87;41.74
66486;BME280;53303;47.476;8.084;2024-02-26T11:29:46;93540.81;;;19.84;41.71
66486;BME280;53303;47.476;8.084;2024-02-26T11:32:12;93553.00;;;19.88;41.65
66486;BME280;53303;47.476;8.084;2024-02-26T11:34:38;93549.50;;;19.88;41.65
66486;BME280;53303;47.476;8.084;2024-02-26T11:37:11;93552.28;;;19.88;41.75
66486;BME280;53303;47.476;8.084;2024-02-26T11:39:39;93539.00;;;19.86;41.78
66486;BME280;53303;47.476;8.084;2024-02-26T11:42:06;93540.66;;;19.89;41.74
66486;BME280;53303;47.476;8.084;2024-02-26T11:44:31;93527.19;;;19.86;41.98
66486;BME280;53303;47.476;8.084;2024-02-26T11:46:57;93540.66;;;19.89;41.90
66486;BME280;53303;47.476;8.084;2024-02-26T11:51:55;93523.66;;;19.85;41.83
66486;BME280;53303;47.476;8.084;2024-02-26T11:54:52;93520.34;;;19.87;41.74
66486;BME280;53303;47.476;8.084;2024-02-26T11:57:39;93520.91;;;19.85;41.82
66486;BME280;53303;47.476;8.084;2024-02-26T12:00:18;93521.84;;;19.88;41.74
66486;BME280;53303;47.476;8.084;2024-02-26T12:02:51;93523.47;;;19.91;41.79
66486;BME280;53303;47.476;8.084;2024-02-26T12:05:23;93524.97;;;19.92;41.75
66486;BME280;53303;47.476;8.084;2024-02-26T12:07:59;93524.97;;;19.92;41.65
66486;BME280;53303;47.476;8.084;2024-02-26T12:10:27;93510.75;;;19.88;41.83
66486;BME280;53303;47.476;8.084;2024-02-26T12:13:00;93519.63;;;19.94;41.62
66486;BME280;53303;47.476;8.084;2024-02-26T12:15:34;93511.31;;;19.94;41.65
66486;BME280;53303;47.476;8.084;2024-02-26T12:18:05;93516.66;;;19.92;41.69
66486;BME280;53303;47.476;8.084;2024-02-26T12:20:31;93517.56;;;19.94;41.66
66486;BME280;53303;47.476;8.084;2024-02-26T12:22:57;93525.16;;;19.94;41.79
66486;BME280;53303;47.476;8.084;2024-02-26T12:25:28;93530.88;;;19.96;41.87
66486;BME280;53303;47.476;8.084;2024-02-26T12:27:54;93521.28;;;19.97;41.77
66486;BME280;53303;47.476;8.084;2024-02-26T12:30:21;93527.00;;;19.99;41.78
66486;BME280;53303;47.476;8.084;2024-02-26T12:32:51;93521.47;;;19.99;41.84
66486;BME280;53303;47.476;8.084;2024-02-26T12:35:22;93524.97;;;20.00;41.82
66486;BME280;53303;47.476;8.084;2024-02-26T12:37:52;93530.88;;;19.96;41.91
66486;BME280;53303;47.476;8.084;2024-02-26T12:40:19;93529.22;;;20.01;41.94
66486;BME280;53303;47.476;8.084;2024-02-26T12:42:45;93529.22;;;20.01;41.71
66486;BME280;53303;47.476;8.084;2024-02-26T12:45:12;93532.19;;;20.03;41.82
66486;BME280;53303;47.476;8.084;2024-02-26T12:47:38;93541.22;;;20.03;41.90
66486;BME280;53303;47.476;8.084;2024-02-26T12:50:04;93531.63;;;20.04;41.61
66486;BME280;53303;47.476;8.084;2024-02-26T12:52:34;93534.22;;;20.02;41.71
66486;BME280;53303;47.476;8.084;2024-02-26T12:55:01;93526.09;;;20.04;41.52
66486;BME280;53303;47.476;8.084;2024-02-26T12:57:31;93522.75;;;19.98;41.89
66486;BME280;53303;47.476;8.084;2024-02-26T12:59:59;93532.72;;;20.01;41.59
66486;BME280;53303;47.476;8.084;2024-02-26T13:02:26;93534.75;;;20.08;41.84
66486;BME280;53303;47.476;8.084;2024-02-26T13:04:52;93546.56;;;20.09;41.64